Milwaukee, Wisconsin
Traffic Map
Current Weather Conditions
Milwaukee, Wisconsin
Broken Clouds
Broken Clouds
55°
Feels Like: 55°
Wind Chill: 55° Ceiling: 4600
Heat Index: 55° Visibility: 10mi
Dew Point: 51° Wind: 8mph
Humidity: 86% Direction: 30° (NNE)
Pressure: 29.91in Gusts: 0mph
Raw Report DataKMKE 010152Z 03007KT 10SM SCT008 BKN046 BKN060 BKN250 13/11 A2991 RMK AO2 SLP128 T01280106
Traffic Incident Summary
Active as of:
Severity:
Category:
InformationThere was an issue retrieving the traffic information for this location. Please try a different location or try again shortly.
Advertisements
Track Severe Weather on mobile